createdAt,value
2017-09-26T00:00:06.463Z,1015.06
2017-09-26T00:01:06.050Z,1015.03
2017-09-26T00:02:01.108Z,1014.99
2017-09-26T00:02:55.130Z,1014.99
2017-09-26T00:03:50.207Z,1014.99
2017-09-26T00:04:51.599Z,1015.01
2017-09-26T00:05:45.276Z,1014.97
2017-09-26T00:06:45.250Z,1015.00
2017-09-26T00:07:40.279Z,1015.00
2017-09-26T00:08:35.357Z,1014.99
2017-09-26T00:09:41.586Z,1014.96
2017-09-26T00:10:41.378Z,1014.99
2017-09-26T00:11:41.498Z,1014.93
2017-09-26T00:12:35.452Z,1014.97
2017-09-26T00:13:35.688Z,1014.98
2017-09-26T00:14:35.793Z,1014.98
2017-09-26T00:15:30.552Z,1015.00
2017-09-26T00:16:18.553Z,1014.95
2017-09-26T00:17:18.735Z,1014.98
2017-09-26T00:18:12.673Z,1014.99
2017-09-26T00:19:12.665Z,1014.98
2017-09-26T00:20:06.869Z,1014.99
2017-09-26T00:21:01.771Z,1014.98
2017-09-26T00:21:50.806Z,1014.99
2017-09-26T00:22:44.859Z,1014.98
2017-09-26T00:23:44.840Z,1014.99
2017-09-26T00:24:32.891Z,1015.00
2017-09-26T00:25:21.986Z,1015.03
2017-09-26T00:26:10.011Z,1015.04
2017-09-26T00:26:58.034Z,1015.07
2017-09-26T00:27:52.396Z,1015.03
2017-09-26T00:28:41.415Z,1015.08
2017-09-26T00:29:30.275Z,1015.06
2017-09-26T00:30:19.237Z,1015.05
2017-09-26T00:31:07.259Z,1015.08
2017-09-26T00:31:55.725Z,1015.08
2017-09-26T00:32:49.276Z,1015.04
2017-09-26T00:33:49.358Z,1015.06
2017-09-26T00:34:49.381Z,1015.07
2017-09-26T00:35:37.409Z,1015.04
2017-09-26T00:36:37.426Z,1015.07
2017-09-26T00:37:32.461Z,1015.05
2017-09-26T00:38:20.484Z,1015.04
2017-09-26T00:39:09.569Z,1015.04
2017-09-26T00:39:58.052Z,1015.06
2017-09-26T00:40:46.656Z,1015.04
2017-09-26T00:41:46.649Z,1015.01
2017-09-26T00:42:35.670Z,1015.05
2017-09-26T00:43:23.747Z,1015.06
2017-09-26T00:44:11.816Z,1015.11
2017-09-26T00:44:59.874Z,1015.08
2017-09-26T00:45:48.839Z,1015.05
2017-09-26T00:46:36.890Z,1015.08
2017-09-26T00:47:24.956Z,1015.10
2017-09-26T00:48:13.972Z,1015.10
2017-09-26T00:49:02.036Z,1015.14
2017-09-26T00:49:51.071Z,1015.14
2017-09-26T00:50:45.087Z,1015.11
2017-09-26T00:51:39.158Z,1015.14
2017-09-26T00:52:28.200Z,1015.10
2017-09-26T00:53:16.236Z,1015.13
2017-09-26T00:54:05.244Z,1015.11
2017-09-26T00:54:53.746Z,1015.13
2017-09-26T00:55:41.313Z,1015.08
2017-09-26T00:56:29.402Z,1015.09
2017-09-26T00:57:18.389Z,1015.08
2017-09-26T00:58:06.451Z,1015.09
2017-09-26T00:59:00.895Z,1015.03
2017-09-26T00:59:49.541Z,1015.09
2017-09-26T01:00:38.718Z,1015.08
2017-09-26T01:01:32.621Z,1015.11
2017-09-26T01:02:21.657Z,1015.08
2017-09-26T01:03:21.667Z,1015.09
2017-09-26T01:04:15.720Z,1015.08
2017-09-26T01:05:03.753Z,1015.11
2017-09-26T01:06:03.894Z,1015.07
2017-09-26T01:06:52.832Z,1015.06
2017-09-26T01:07:46.874Z,1015.08
2017-09-26T01:08:35.920Z,1015.09
2017-09-26T01:09:30.972Z,1015.10
2017-09-26T01:10:30.979Z,1015.11
2017-09-26T01:11:26.044Z,1015.11
2017-09-26T01:12:21.310Z,1015.10
2017-09-26T01:13:21.089Z,1015.09
2017-09-26T01:14:16.261Z,1015.13
2017-09-26T01:15:11.139Z,1015.10
2017-09-26T01:16:12.177Z,1015.09
2017-09-26T01:17:12.645Z,1015.15
2017-09-26T01:18:06.253Z,1015.09
2017-09-26T01:19:00.262Z,1015.11
2017-09-26T01:19:54.770Z,1015.08
2017-09-26T01:20:54.346Z,1015.07
2017-09-26T01:21:42.371Z,1015.06
2017-09-26T01:22:42.451Z,1015.07
2017-09-26T01:23:42.457Z,1015.09
2017-09-26T01:24:36.515Z,1015.10
2017-09-26T01:25:36.526Z,1015.12
2017-09-26T01:26:30.546Z,1015.10
2017-09-26T01:27:30.552Z,1015.14
2017-09-26T01:28:24.645Z,1015.11
2017-09-26T01:29:20.043Z,1015.12
2017-09-26T01:30:19.905Z,1015.11
2017-09-26T01:31:19.770Z,1015.08
2017-09-26T01:32:13.749Z,1015.10
2017-09-26T01:33:13.767Z,1015.07
2017-09-26T01:34:09.090Z,1015.10
2017-09-26T01:35:04.107Z,1015.11
2017-09-26T01:36:09.871Z,1015.09
2017-09-26T01:37:09.893Z,1015.10
2017-09-26T01:38:09.959Z,1015.09
2017-09-26T01:39:04.268Z,1015.15
2017-09-26T01:40:04.038Z,1015.11
2017-09-26T01:41:04.048Z,1015.12
2017-09-26T01:41:59.073Z,1015.15
2017-09-26T01:42:48.132Z,1015.15
2017-09-26T01:43:42.147Z,1015.13
2017-09-26T01:44:48.171Z,1015.14
2017-09-26T01:45:43.243Z,1015.14
2017-09-26T01:46:32.668Z,1015.15
2017-09-26T01:47:32.273Z,1015.09
2017-09-26T01:48:20.335Z,1015.12
2017-09-26T01:49:08.409Z,1015.12
2017-09-26T01:49:57.385Z,1015.09
2017-09-26T01:50:51.467Z,1015.10
2017-09-26T01:51:40.501Z,1015.15
2017-09-26T01:52:29.553Z,1015.12
2017-09-26T01:53:17.556Z,1015.11
2017-09-26T01:54:06.597Z,1015.15
2017-09-26T01:54:56.095Z,1015.13
2017-09-26T01:55:49.700Z,1015.15
2017-09-26T01:56:39.002Z,1015.17
2017-09-26T01:57:32.756Z,1015.15
2017-09-26T01:58:28.167Z,1015.15
2017-09-26T01:59:21.935Z,1015.21
2017-09-26T02:00:16.329Z,1015.23
2017-09-26T02:01:09.884Z,1015.23
2017-09-26T02:02:04.950Z,1015.22
2017-09-26T02:02:53.954Z,1015.20
2017-09-26T02:03:55.444Z,1015.23
2017-09-26T02:04:56.467Z,1015.21
2017-09-26T02:05:50.060Z,1015.20
2017-09-26T02:06:50.259Z,1015.20
2017-09-26T02:07:45.147Z,1015.19
2017-09-26T02:08:40.161Z,1015.18
2017-09-26T02:09:40.455Z,1015.23
2017-09-26T02:10:35.236Z,1015.22
2017-09-26T02:11:30.262Z,1015.21
2017-09-26T02:12:30.326Z,1015.18
2017-09-26T02:13:25.417Z,1015.20
2017-09-26T02:14:20.595Z,1015.22
2017-09-26T02:15:21.799Z,1015.21
2017-09-26T02:16:21.527Z,1015.21
2017-09-26T02:17:21.666Z,1015.18
2017-09-26T02:18:16.543Z,1015.17
2017-09-26T02:19:10.533Z,1015.19
2017-09-26T02:20:10.824Z,1015.20
2017-09-26T02:21:05.621Z,1015.20
2017-09-26T02:22:12.040Z,1015.21
2017-09-26T02:23:06.852Z,1015.20
2017-09-26T02:24:00.874Z,1015.17
2017-09-26T02:24:49.182Z,1015.17
2017-09-26T02:25:36.755Z,1015.16
2017-09-26T02:26:26.025Z,1015.18
2017-09-26T02:27:14.022Z,1015.20
2017-09-26T02:28:02.873Z,1015.17
2017-09-26T02:28:56.945Z,1015.15
2017-09-26T02:29:57.401Z,1015.20
2017-09-26T02:30:57.999Z,1015.22
2017-09-26T02:31:58.052Z,1015.22
2017-09-26T02:32:53.241Z,1015.21
2017-09-26T02:33:53.125Z,1015.22
2017-09-26T02:34:47.494Z,1015.20
2017-09-26T02:35:41.195Z,1015.20
2017-09-26T02:36:35.235Z,1015.21
2017-09-26T02:37:35.251Z,1015.16
2017-09-26T02:38:29.251Z,1015.20
2017-09-26T02:39:29.544Z,1015.18
2017-09-26T02:40:29.359Z,1015.22
2017-09-26T02:41:29.861Z,1015.20
2017-09-26T02:42:23.389Z,1015.28
2017-09-26T02:43:24.483Z,1015.25
2017-09-26T02:44:24.472Z,1015.26
2017-09-26T02:45:24.494Z,1015.22
2017-09-26T02:46:18.548Z,1015.21
2017-09-26T02:47:19.941Z,1015.18
2017-09-26T02:48:19.620Z,1015.23
2017-09-26T02:49:14.647Z,1015.18
2017-09-26T02:50:08.878Z,1015.21
2017-09-26T02:50:57.746Z,1015.21
2017-09-26T02:51:52.203Z,1015.23
2017-09-26T02:52:52.121Z,1015.25
2017-09-26T02:53:45.820Z,1015.24
2017-09-26T02:54:39.881Z,1015.26
2017-09-26T02:55:33.866Z,1015.24
2017-09-26T02:56:33.943Z,1015.21
2017-09-26T02:57:33.955Z,1015.24
2017-09-26T02:58:28.049Z,1015.23
2017-09-26T02:59:22.075Z,1015.20
2017-09-26T03:00:16.522Z,1015.22
2017-09-26T03:01:05.116Z,1015.22
2017-09-26T03:02:05.163Z,1015.24
2017-09-26T03:03:00.161Z,1015.23
2017-09-26T03:03:48.265Z,1015.18
2017-09-26T03:04:42.605Z,1015.23
2017-09-26T03:05:36.287Z,1015.23
2017-09-26T03:06:36.365Z,1015.22
2017-09-26T03:07:36.573Z,1015.20
2017-09-26T03:08:25.371Z,1015.21
2017-09-26T03:09:14.456Z,1015.25
2017-09-26T03:10:09.473Z,1015.24
2017-09-26T03:11:09.522Z,1015.24
2017-09-26T03:11:58.552Z,1015.26
2017-09-26T03:12:52.574Z,1015.25
2017-09-26T03:13:52.571Z,1015.26
2017-09-26T03:14:46.657Z,1015.22
2017-09-26T03:15:46.661Z,1015.28
2017-09-26T03:16:40.730Z,1015.28
2017-09-26T03:17:34.838Z,1015.25
2017-09-26T03:18:28.758Z,1015.29
2017-09-26T03:19:17.837Z,1015.29
2017-09-26T03:20:12.868Z,1015.31
2017-09-26T03:21:00.923Z,1015.34
2017-09-26T03:21:48.954Z,1015.32
2017-09-26T03:22:43.972Z,1015.30
2017-09-26T03:23:38.023Z,1015.32
2017-09-26T03:24:32.494Z,1015.30
2017-09-26T03:25:27.093Z,1015.36
2017-09-26T03:26:21.148Z,1015.34
2017-09-26T03:27:21.159Z,1015.35
2017-09-26T03:28:10.166Z,1015.36
2017-09-26T03:29:04.343Z,1015.37
2017-09-26T03:29:58.724Z,1015.35
2017-09-26T03:30:47.353Z,1015.36
2017-09-26T03:31:35.351Z,1015.38
2017-09-26T03:32:29.376Z,1015.30
2017-09-26T03:33:29.389Z,1015.35
2017-09-26T03:34:18.448Z,1015.32
2017-09-26T03:35:06.519Z,1015.35
2017-09-26T03:35:54.555Z,1015.35
2017-09-26T03:36:42.556Z,1015.34
2017-09-26T03:37:31.770Z,1015.33
2017-09-26T03:38:26.655Z,1015.34
2017-09-26T03:39:27.666Z,1015.35
2017-09-26T03:40:22.321Z,1015.35
2017-09-26T03:41:21.760Z,1015.35
2017-09-26T03:42:15.774Z,1015.38
2017-09-26T03:43:15.800Z,1015.40
2017-09-26T03:44:09.852Z,1015.40
2017-09-26T03:45:04.871Z,1015.41
2017-09-26T03:45:59.932Z,1015.42
2017-09-26T03:46:53.982Z,1015.43
2017-09-26T03:47:43.038Z,1015.40
2017-09-26T03:48:31.065Z,1015.44
2017-09-26T03:49:25.155Z,1015.45
2017-09-26T03:50:26.106Z,1015.43
2017-09-26T03:51:20.160Z,1015.41
2017-09-26T03:52:15.227Z,1015.44
2017-09-26T03:53:15.265Z,1015.41
2017-09-26T03:54:15.244Z,1015.41
2017-09-26T03:55:10.268Z,1015.41
2017-09-26T03:55:59.338Z,1015.40
2017-09-26T03:56:53.406Z,1015.45
2017-09-26T03:57:42.435Z,1015.45
2017-09-26T03:58:36.483Z,1015.40
2017-09-26T03:59:36.877Z,1015.42
2017-09-26T04:00:25.480Z,1015.41
2017-09-26T04:01:25.539Z,1015.44
2017-09-26T04:02:19.556Z,1015.43
2017-09-26T04:03:19.638Z,1015.43
2017-09-26T04:04:13.979Z,1015.43
2017-09-26T04:05:13.653Z,1015.43
2017-09-26T04:06:08.729Z,1015.39
2017-09-26T04:06:56.748Z,1015.40
2017-09-26T04:07:52.221Z,1015.44
2017-09-26T04:08:40.826Z,1015.41
2017-09-26T04:09:35.013Z,1015.42
2017-09-26T04:10:28.873Z,1015.42
2017-09-26T04:11:16.946Z,1015.41
2017-09-26T04:12:10.974Z,1015.41
2017-09-26T04:13:06.145Z,1015.39
2017-09-26T04:14:06.047Z,1015.43
2017-09-26T04:15:00.406Z,1015.41
2017-09-26T04:15:55.219Z,1015.41
2017-09-26T04:16:49.187Z,1015.43
2017-09-26T04:17:49.151Z,1015.42
2017-09-26T04:18:44.219Z,1015.43
2017-09-26T04:19:38.601Z,1015.44
2017-09-26T04:20:38.252Z,1015.44
2017-09-26T04:21:33.318Z,1015.43
2017-09-26T04:22:33.514Z,1015.40
2017-09-26T04:23:27.368Z,1015.46
2017-09-26T04:24:27.406Z,1015.45
2017-09-26T04:25:23.061Z,1015.47
2017-09-26T04:26:16.461Z,1015.43
2017-09-26T04:27:16.487Z,1015.42
2017-09-26T04:28:10.553Z,1015.42
2017-09-26T04:28:59.594Z,1015.43
2017-09-26T04:29:53.640Z,1015.40
2017-09-26T04:30:59.658Z,1015.43
2017-09-26T04:31:59.958Z,1015.46
2017-09-26T04:32:54.722Z,1015.42
2017-09-26T04:33:48.915Z,1015.42
2017-09-26T04:34:48.934Z,1015.43
2017-09-26T04:35:43.834Z,1015.43
2017-09-26T04:36:38.860Z,1015.45
2017-09-26T04:37:40.072Z,1015.44
2017-09-26T04:38:27.927Z,1015.43
2017-09-26T04:39:15.952Z,1015.40
2017-09-26T04:40:17.378Z,1015.42
2017-09-26T04:41:11.040Z,1015.38
2017-09-26T04:42:11.572Z,1015.39
2017-09-26T04:43:06.115Z,1015.43
2017-09-26T04:44:01.129Z,1015.44
2017-09-26T04:44:49.206Z,1015.44
2017-09-26T04:45:44.219Z,1015.47
2017-09-26T04:46:33.251Z,1015.46
2017-09-26T04:47:27.715Z,1015.45
2017-09-26T04:48:27.329Z,1015.42
2017-09-26T04:49:27.340Z,1015.48
2017-09-26T04:50:22.861Z,1015.44
2017-09-26T04:51:16.430Z,1015.46
2017-09-26T04:52:16.723Z,1015.44
2017-09-26T04:53:11.861Z,1015.46
2017-09-26T04:54:11.529Z,1015.49
2017-09-26T04:55:00.997Z,1015.51
2017-09-26T04:55:54.574Z,1015.50
2017-09-26T04:56:43.632Z,1015.50
2017-09-26T04:57:31.647Z,1015.50
2017-09-26T04:58:20.778Z,1015.51
2017-09-26T04:59:14.752Z,1015.47
2017-09-26T05:00:02.779Z,1015.50
2017-09-26T05:00:51.838Z,1015.47
2017-09-26T05:01:45.857Z,1015.48
2017-09-26T05:02:34.874Z,1015.45
2017-09-26T05:03:23.958Z,1015.45
2017-09-26T05:04:23.958Z,1015.54
2017-09-26T05:05:13.167Z,1015.52
2017-09-26T05:06:07.050Z,1015.50
2017-09-26T05:07:02.074Z,1015.54
2017-09-26T05:08:02.135Z,1015.53
2017-09-26T05:09:02.173Z,1015.57
2017-09-26T05:09:57.219Z,1015.56
2017-09-26T05:10:51.241Z,1015.54
2017-09-26T05:11:40.577Z,1015.62
2017-09-26T05:12:35.283Z,1015.60
2017-09-26T05:13:30.411Z,1015.61
2017-09-26T05:14:19.519Z,1015.62
2017-09-26T05:15:14.422Z,1015.64
2017-09-26T05:16:14.452Z,1015.64
2017-09-26T05:17:09.471Z,1015.68
2017-09-26T05:18:03.532Z,1015.67
2017-09-26T05:18:58.545Z,1015.68
2017-09-26T05:19:52.573Z,1015.67
2017-09-26T05:20:47.705Z,1015.63
2017-09-26T05:21:41.645Z,1015.63
2017-09-26T05:22:36.852Z,1015.64
2017-09-26T05:23:25.742Z,1015.64
2017-09-26T05:24:20.761Z,1015.69
2017-09-26T05:25:15.815Z,1015.65
2017-09-26T05:26:16.848Z,1015.68
2017-09-26T05:27:16.974Z,1015.66
2017-09-26T05:28:10.878Z,1015.68
2017-09-26T05:29:10.938Z,1015.67
2017-09-26T05:30:04.965Z,1015.65
2017-09-26T05:30:54.060Z,1015.65
2017-09-26T05:31:49.508Z,1015.61
2017-09-26T05:32:43.058Z,1015.63
2017-09-26T05:33:43.139Z,1015.68
2017-09-26T05:34:37.657Z,1015.69
2017-09-26T05:35:37.163Z,1015.66
2017-09-26T05:36:32.243Z,1015.69
2017-09-26T05:37:20.267Z,1015.70
2017-09-26T05:38:20.424Z,1015.71
2017-09-26T05:39:15.346Z,1015.74
2017-09-26T05:40:09.351Z,1015.76
2017-09-26T05:41:04.496Z,1015.76
2017-09-26T05:41:59.460Z,1015.76
2017-09-26T05:43:00.869Z,1015.75
2017-09-26T05:44:00.492Z,1015.76
2017-09-26T05:45:00.557Z,1015.74
2017-09-26T05:45:54.551Z,1015.79
2017-09-26T05:46:54.628Z,1015.79
2017-09-26T05:47:50.148Z,1015.81
2017-09-26T05:48:43.895Z,1015.86
2017-09-26T05:49:44.215Z,1015.86
2017-09-26T05:50:43.751Z,1015.85
2017-09-26T05:51:43.758Z,1015.84
2017-09-26T05:52:32.994Z,1015.83
2017-09-26T05:53:27.858Z,1015.87
2017-09-26T05:54:16.914Z,1015.86
2017-09-26T05:55:10.949Z,1015.84
2017-09-26T05:56:11.038Z,1015.84
2017-09-26T05:57:05.025Z,1015.84
2017-09-26T05:57:59.043Z,1015.84
2017-09-26T05:58:47.132Z,1015.84
2017-09-26T05:59:41.743Z,1015.80
2017-09-26T06:00:36.370Z,1015.85
2017-09-26T06:01:30.220Z,1015.80
2017-09-26T06:02:24.238Z,1015.86
2017-09-26T06:03:13.263Z,1015.85
2017-09-26T06:04:13.336Z,1015.80
2017-09-26T06:05:13.318Z,1015.85
2017-09-26T06:06:13.348Z,1015.87
2017-09-26T06:07:13.439Z,1015.86
2017-09-26T06:08:19.426Z,1015.87
2017-09-26T06:09:13.462Z,1015.89
2017-09-26T06:10:08.553Z,1015.89
2017-09-26T06:11:02.528Z,1015.87
2017-09-26T06:11:51.588Z,1015.86
2017-09-26T06:12:39.616Z,1015.91
2017-09-26T06:13:27.638Z,1015.89
2017-09-26T06:14:21.697Z,1015.87
2017-09-26T06:15:21.725Z,1015.88
2017-09-26T06:16:15.973Z,1015.88
2017-09-26T06:17:15.788Z,1015.81
2017-09-26T06:18:10.813Z,1015.81
2017-09-26T06:19:04.848Z,1015.84
2017-09-26T06:20:05.860Z,1015.88
2017-09-26T06:21:06.101Z,1015.87
2017-09-26T06:21:55.037Z,1015.87
2017-09-26T06:22:55.010Z,1015.93
2017-09-26T06:23:44.050Z,1015.93
2017-09-26T06:24:39.551Z,1015.90
2017-09-26T06:25:27.139Z,1015.94
2017-09-26T06:26:27.187Z,1015.97
2017-09-26T06:27:21.670Z,1015.99
2017-09-26T06:28:21.394Z,1016.04
2017-09-26T06:29:16.504Z,1016.01
2017-09-26T06:30:10.502Z,1016.05
2017-09-26T06:31:04.354Z,1016.05
2017-09-26T06:32:04.369Z,1016.04
2017-09-26T06:33:04.448Z,1016.08
2017-09-26T06:33:52.460Z,1016.12
2017-09-26T06:34:46.857Z,1016.09
2017-09-26T06:35:41.562Z,1016.11
2017-09-26T06:36:42.560Z,1016.10
2017-09-26T06:37:31.635Z,1016.13
2017-09-26T06:38:32.866Z,1016.13
2017-09-26T06:39:27.662Z,1016.12
2017-09-26T06:40:21.752Z,1016.12
2017-09-26T06:41:10.009Z,1016.10
2017-09-26T06:42:03.811Z,1016.14
2017-09-26T06:42:58.904Z,1016.13
2017-09-26T06:43:58.981Z,1016.16
2017-09-26T06:44:47.876Z,1016.14
2017-09-26T06:45:42.951Z,1016.20
2017-09-26T06:46:32.156Z,1016.19
2017-09-26T06:47:26.138Z,1016.18
2017-09-26T06:48:32.349Z,1016.26
2017-09-26T06:49:26.321Z,1016.20
2017-09-26T06:50:26.327Z,1016.26
2017-09-26T06:51:14.220Z,1016.24
2017-09-26T06:52:09.255Z,1016.26
2017-09-26T06:53:09.259Z,1016.27
2017-09-26T06:54:04.306Z,1016.32
2017-09-26T06:55:04.418Z,1016.27
2017-09-26T06:55:59.362Z,1016.30
2017-09-26T06:56:54.435Z,1016.30
2017-09-26T06:57:48.460Z,1016.33
2017-09-26T06:58:48.511Z,1016.31
2017-09-26T06:59:44.013Z,1016.39
2017-09-26T07:00:38.568Z,1016.37
2017-09-26T07:01:38.628Z,1016.36
2017-09-26T07:02:33.094Z,1016.35
2017-09-26T07:03:33.661Z,1016.36
2017-09-26T07:04:27.741Z,1016.36
2017-09-26T07:05:16.761Z,1016.38
2017-09-26T07:06:11.836Z,1016.33
2017-09-26T07:07:06.843Z,1016.32
2017-09-26T07:08:06.859Z,1016.32
2017-09-26T07:09:01.878Z,1016.33
2017-09-26T07:09:55.990Z,1016.35
2017-09-26T07:10:50.965Z,1016.36
2017-09-26T07:11:51.504Z,1016.36
2017-09-26T07:12:45.058Z,1016.41
2017-09-26T07:13:45.118Z,1016.42
2017-09-26T07:14:34.140Z,1016.39
2017-09-26T07:15:29.166Z,1016.39
2017-09-26T07:16:23.244Z,1016.39
2017-09-26T07:17:23.260Z,1016.40
2017-09-26T07:18:17.274Z,1016.42
2017-09-26T07:19:17.340Z,1016.44
2017-09-26T07:20:12.393Z,1016.43
2017-09-26T07:21:12.390Z,1016.41
2017-09-26T07:22:07.452Z,1016.38
2017-09-26T07:23:01.541Z,1016.40
2017-09-26T07:23:55.536Z,1016.39
2017-09-26T07:24:50.510Z,1016.45
2017-09-26T07:25:45.692Z,1016.43
2017-09-26T07:26:39.759Z,1016.45
2017-09-26T07:27:40.827Z,1016.50
2017-09-26T07:28:34.803Z,1016.46
2017-09-26T07:29:28.731Z,1016.46
2017-09-26T07:30:23.772Z,1016.47
2017-09-26T07:31:18.808Z,1016.48
2017-09-26T07:32:13.007Z,1016.40
2017-09-26T07:33:08.051Z,1016.48
2017-09-26T07:34:03.167Z,1016.47
2017-09-26T07:35:02.972Z,1016.48
2017-09-26T07:35:52.300Z,1016.46
2017-09-26T07:36:47.061Z,1016.52
2017-09-26T07:37:41.136Z,1016.53
2017-09-26T07:38:41.313Z,1016.55
2017-09-26T07:39:36.664Z,1016.57
2017-09-26T07:40:36.285Z,1016.51
2017-09-26T07:41:36.244Z,1016.55
2017-09-26T07:42:31.663Z,1016.59
2017-09-26T07:43:31.571Z,1016.58
2017-09-26T07:44:26.437Z,1016.53
2017-09-26T07:45:21.690Z,1016.57
2017-09-26T07:46:22.016Z,1016.60
2017-09-26T07:47:15.552Z,1016.57
2017-09-26T07:48:16.683Z,1016.52
2017-09-26T07:49:16.695Z,1016.53
2017-09-26T07:50:10.703Z,1016.53
2017-09-26T07:51:10.712Z,1016.57
2017-09-26T07:52:04.853Z,1016.59
2017-09-26T07:53:05.860Z,1016.57
2017-09-26T07:54:06.888Z,1016.60
2017-09-26T07:55:07.091Z,1016.57
2017-09-26T07:56:06.906Z,1016.53
2017-09-26T07:57:07.089Z,1016.57
2017-09-26T07:58:01.153Z,1016.56
2017-09-26T07:59:02.102Z,1016.57
2017-09-26T07:59:56.226Z,1016.53
2017-09-26T08:00:50.283Z,1016.54
2017-09-26T08:01:50.277Z,1016.59
2017-09-26T08:02:44.281Z,1016.55
2017-09-26T08:03:45.583Z,1016.57
2017-09-26T08:04:39.653Z,1016.55
2017-09-26T08:05:39.229Z,1016.55
2017-09-26T08:06:33.257Z,1016.61
2017-09-26T08:07:33.267Z,1016.66
2017-09-26T08:08:28.402Z,1016.62
2017-09-26T08:09:22.369Z,1016.65
2017-09-26T08:10:16.852Z,1016.64
2017-09-26T08:11:11.463Z,1016.62
2017-09-26T08:12:11.520Z,1016.60
2017-09-26T08:13:06.559Z,1016.67
2017-09-26T08:14:06.784Z,1016.61
2017-09-26T08:15:00.651Z,1016.58
2017-09-26T08:16:00.653Z,1016.70
2017-09-26T08:16:49.717Z,1016.66
2017-09-26T08:17:38.761Z,1016.56
2017-09-26T08:18:32.762Z,1016.64
2017-09-26T08:19:28.164Z,1016.64
2017-09-26T08:20:33.973Z,1016.66
2017-09-26T08:21:23.065Z,1016.67
2017-09-26T08:22:17.145Z,1016.69
2017-09-26T08:23:12.698Z,1016.69
2017-09-26T08:24:06.306Z,1016.72
2017-09-26T08:25:01.342Z,1016.70
2017-09-26T08:25:56.344Z,1016.74
2017-09-26T08:26:56.488Z,1016.67
2017-09-26T08:27:50.619Z,1016.70
2017-09-26T08:28:44.252Z,1016.78
2017-09-26T08:29:39.787Z,1016.69
2017-09-26T08:30:39.885Z,1016.72
2017-09-26T08:31:34.361Z,1016.71
2017-09-26T08:32:29.403Z,1016.68
2017-09-26T08:33:30.534Z,1016.72
2017-09-26T08:34:30.479Z,1016.77
2017-09-26T08:35:25.532Z,1016.75
2017-09-26T08:36:25.625Z,1016.75
2017-09-26T08:37:20.654Z,1016.77
2017-09-26T08:38:14.677Z,1016.72
2017-09-26T08:39:14.781Z,1016.74
2017-09-26T08:40:14.829Z,1016.76
2017-09-26T08:41:20.907Z,1016.70
2017-09-26T08:42:15.850Z,1016.69
2017-09-26T08:43:09.849Z,1016.70
2017-09-26T08:44:04.924Z,1016.71
2017-09-26T08:45:05.944Z,1016.66
2017-09-26T08:46:00.986Z,1016.70
2017-09-26T08:46:55.312Z,1016.68
2017-09-26T08:47:56.077Z,1016.73
2017-09-26T08:48:50.194Z,1016.75
2017-09-26T08:49:39.629Z,1016.73
2017-09-26T08:50:34.511Z,1016.72
2017-09-26T08:51:34.678Z,1016.68
2017-09-26T08:52:29.577Z,1016.70
2017-09-26T08:53:23.355Z,1016.67
2017-09-26T08:54:23.364Z,1016.68
2017-09-26T08:55:17.388Z,1016.72
2017-09-26T08:56:17.479Z,1016.71
2017-09-26T08:57:12.470Z,1016.64
2017-09-26T08:58:07.544Z,1016.66
2017-09-26T08:59:01.570Z,1016.69
2017-09-26T08:59:55.634Z,1016.69
2017-09-26T09:00:50.657Z,1016.70
2017-09-26T09:01:44.998Z,1016.70
2017-09-26T09:02:44.830Z,1016.71
2017-09-26T09:03:38.764Z,1016.76
2017-09-26T09:04:40.309Z,1016.69
2017-09-26T09:05:29.125Z,1016.66
2017-09-26T09:06:23.924Z,1016.67
2017-09-26T09:07:23.979Z,1016.65
2017-09-26T09:08:23.964Z,1016.60
2017-09-26T09:09:18.330Z,1016.65
2017-09-26T09:10:18.269Z,1016.65
2017-09-26T09:11:12.130Z,1016.63
2017-09-26T09:12:06.623Z,1016.60
2017-09-26T09:13:06.657Z,1016.64
2017-09-26T09:14:00.660Z,1016.63
2017-09-26T09:15:00.571Z,1016.63
2017-09-26T09:15:54.895Z,1016.60
2017-09-26T09:16:54.527Z,1016.62
2017-09-26T09:17:48.495Z,1016.58
2017-09-26T09:18:49.469Z,1016.57
2017-09-26T09:19:51.138Z,1016.58
2017-09-26T09:20:50.777Z,1016.62
2017-09-26T09:21:50.806Z,1016.61
2017-09-26T09:22:44.628Z,1016.61
2017-09-26T09:23:45.031Z,1016.62
2017-09-26T09:24:40.200Z,1016.58
2017-09-26T09:25:34.995Z,1016.59
2017-09-26T09:26:29.002Z,1016.62
2017-09-26T09:27:29.205Z,1016.56
2017-09-26T09:28:24.085Z,1016.56
2017-09-26T09:29:19.156Z,1016.55
2017-09-26T09:30:13.187Z,1016.56
2017-09-26T09:31:13.016Z,1016.57
2017-09-26T09:32:07.314Z,1016.58
2017-09-26T09:32:55.126Z,1016.57
2017-09-26T09:33:44.511Z,1016.59
2017-09-26T09:34:38.491Z,1016.59
2017-09-26T09:35:38.592Z,1016.56
2017-09-26T09:36:32.670Z,1016.50
2017-09-26T09:37:27.348Z,1016.56
2017-09-26T09:38:22.380Z,1016.55
2017-09-26T09:39:17.419Z,1016.49
2017-09-26T09:40:06.521Z,1016.50
2017-09-26T09:41:00.745Z,1016.54
2017-09-26T09:41:55.555Z,1016.60
2017-09-26T09:42:55.613Z,1016.58
2017-09-26T09:43:45.071Z,1016.51
2017-09-26T09:44:33.716Z,1016.52
2017-09-26T09:45:33.844Z,1016.55
2017-09-26T09:46:22.894Z,1016.54
2017-09-26T09:47:16.849Z,1016.57
2017-09-26T09:48:23.107Z,1016.62
2017-09-26T09:49:18.292Z,1016.50
2017-09-26T09:50:12.367Z,1016.58
2017-09-26T09:51:06.270Z,1016.64
2017-09-26T09:51:55.517Z,1016.59
2017-09-26T09:52:55.440Z,1016.75
2017-09-26T09:53:44.165Z,1016.65
2017-09-26T09:54:39.617Z,1016.72
2017-09-26T09:55:33.676Z,1016.68
2017-09-26T09:56:28.672Z,1016.62
2017-09-26T09:57:23.797Z,1016.68
2017-09-26T09:58:12.847Z,1016.72
2017-09-26T09:59:07.670Z,1016.61
2017-09-26T10:00:01.875Z,1016.66
2017-09-26T10:00:55.878Z,1016.68
2017-09-26T10:01:44.068Z,1016.54
2017-09-26T10:02:43.850Z,1016.66
2017-09-26T10:03:33.005Z,1016.63
2017-09-26T10:04:27.171Z,1016.68
2017-09-26T10:05:22.235Z,1016.58
2017-09-26T10:06:16.238Z,1016.59
2017-09-26T10:07:10.346Z,1016.61
2017-09-26T10:07:59.351Z,1016.63
2017-09-26T10:08:54.433Z,1016.61
2017-09-26T10:09:42.525Z,1016.52
2017-09-26T10:10:36.554Z,1016.55
2017-09-26T10:11:24.582Z,1016.57
2017-09-26T10:12:18.654Z,1016.55
2017-09-26T10:13:07.694Z,1016.55
2017-09-26T10:14:02.758Z,1016.56
2017-09-26T10:15:02.838Z,1016.58
2017-09-26T10:15:56.896Z,1016.49
2017-09-26T10:16:56.913Z,1016.56
2017-09-26T10:17:50.932Z,1016.56
2017-09-26T10:18:44.937Z,1016.56
2017-09-26T10:19:40.051Z,1016.52
2017-09-26T10:20:34.098Z,1016.59
2017-09-26T10:21:23.263Z,1016.62
2017-09-26T10:22:22.246Z,1016.58
2017-09-26T10:23:17.251Z,1016.59
2017-09-26T10:24:12.284Z,1016.55
2017-09-26T10:25:12.354Z,1016.53
2017-09-26T10:26:07.297Z,1016.54
2017-09-26T10:27:02.456Z,1016.61
2017-09-26T10:28:03.552Z,1016.59
2017-09-26T10:28:57.575Z,1016.43
2017-09-26T10:29:51.785Z,1016.58
2017-09-26T10:30:39.673Z,1016.63
2017-09-26T10:31:34.846Z,1016.55
2017-09-26T10:32:34.788Z,1016.57
2017-09-26T10:33:30.031Z,1016.60
2017-09-26T10:34:23.873Z,1016.59
2017-09-26T10:35:18.963Z,1016.44
2017-09-26T10:36:13.966Z,1016.60
2017-09-26T10:37:08.064Z,1016.71
2017-09-26T10:38:08.145Z,1016.54
2017-09-26T10:39:03.202Z,1016.53
2017-09-26T10:39:52.189Z,1016.51
2017-09-26T10:40:41.272Z,1016.54
2017-09-26T10:41:35.306Z,1016.59
2017-09-26T10:42:35.354Z,1016.52
2017-09-26T10:43:23.435Z,1016.59
2017-09-26T10:44:23.395Z,1016.63
2017-09-26T10:45:17.535Z,1016.67
2017-09-26T10:46:17.556Z,1016.66
2017-09-26T10:47:11.579Z,1016.64
2017-09-26T10:48:05.705Z,1016.60
2017-09-26T10:49:00.793Z,1016.56
2017-09-26T10:49:54.838Z,1016.56
2017-09-26T10:50:49.798Z,1016.58
2017-09-26T10:51:43.913Z,1016.62
2017-09-26T10:52:43.922Z,1016.60
2017-09-26T10:53:38.008Z,1016.59
2017-09-26T10:54:26.096Z,1016.60
2017-09-26T10:55:20.049Z,1016.51
2017-09-26T10:56:14.075Z,1016.55
2017-09-26T10:57:08.203Z,1016.57
2017-09-26T10:58:02.265Z,1016.48
2017-09-26T10:58:50.445Z,1016.50
2017-09-26T10:59:39.370Z,1016.51
2017-09-26T11:00:33.401Z,1016.50
2017-09-26T11:01:33.443Z,1016.52
2017-09-26T11:02:33.605Z,1016.55
2017-09-26T11:03:27.514Z,1016.58
2017-09-26T11:04:21.569Z,1016.58
2017-09-26T11:05:10.675Z,1016.56